createdAt,value
2016-05-21T00:00:43.514Z,0
2016-05-21T00:01:43.313Z,0
2016-05-21T00:02:43.878Z,0
2016-05-21T00:03:43.803Z,0
2016-05-21T00:04:43.477Z,0
2016-05-21T00:05:44.042Z,0
2016-05-21T00:06:43.497Z,0
2016-05-21T00:07:43.298Z,0
2016-05-21T00:08:40.832Z,0
2016-05-21T00:09:40.288Z,0
2016-05-21T00:10:40.071Z,0
2016-05-21T00:11:43.445Z,0
2016-05-21T00:12:40.292Z,0
2016-05-21T00:13:43.029Z,0
2016-05-21T00:14:39.969Z,0
2016-05-21T00:15:39.613Z,0
2016-05-21T00:16:43.046Z,0
2016-05-21T00:17:39.726Z,0
2016-05-21T00:18:39.704Z,0
2016-05-21T00:19:45.805Z,0
2016-05-21T00:20:42.641Z,0
2016-05-21T00:21:39.522Z,0
2016-05-21T00:22:39.482Z,0
2016-05-21T00:23:42.282Z,0
2016-05-21T00:24:39.335Z,0
2016-05-21T00:25:39.058Z,0
2016-05-21T00:26:39.140Z,0
2016-05-21T00:27:42.441Z,0
2016-05-21T00:28:39.178Z,0
2016-05-21T00:29:38.978Z,0
2016-05-21T00:30:41.778Z,0
2016-05-21T00:31:39.142Z,0
2016-05-21T00:32:44.879Z,0
2016-05-21T00:33:38.943Z,0
2016-05-21T00:34:41.900Z,0
2016-05-21T00:35:44.871Z,0
2016-05-21T00:36:44.842Z,0
2016-05-21T00:37:41.798Z,0
2016-05-21T00:38:44.973Z,0
2016-05-21T00:39:38.913Z,0
2016-05-21T00:40:44.634Z,0
2016-05-21T00:41:42.169Z,0
2016-05-21T00:42:50.530Z,0
2016-05-21T00:43:50.517Z,0
2016-05-21T00:44:44.629Z,0
2016-05-21T00:45:44.383Z,0
2016-05-21T00:46:41.370Z,0
2016-05-21T00:47:44.575Z,0
2016-05-21T00:48:41.391Z,0
2016-05-21T00:49:41.752Z,0
2016-05-21T00:50:41.161Z,0
2016-05-21T00:51:40.930Z,0
2016-05-21T00:52:41.291Z,0
2016-05-21T00:53:46.997Z,0
2016-05-21T00:54:44.015Z,0
2016-05-21T00:55:38.268Z,0
2016-05-21T00:56:37.974Z,0
2016-05-21T00:57:43.804Z,0
2016-05-21T00:58:40.745Z,0
2016-05-21T00:59:37.888Z,0
2016-05-21T01:00:38.079Z,0
2016-05-21T01:01:40.832Z,0
2016-05-21T01:02:37.537Z,0
2016-05-21T01:03:40.931Z,0
2016-05-21T01:04:37.137Z,0
2016-05-21T01:05:37.404Z,0
2016-05-21T01:06:37.548Z,0
2016-05-21T01:07:40.520Z,0
2016-05-21T01:08:37.147Z,0
2016-05-21T01:09:37.103Z,0
2016-05-21T01:10:37.011Z,0
2016-05-21T01:11:43.311Z,0
2016-05-21T01:12:37.267Z,0
2016-05-21T01:13:42.957Z,0
2016-05-21T01:14:43.179Z,0
2016-05-21T01:15:36.947Z,0
2016-05-21T01:16:45.903Z,0
2016-05-21T01:17:36.828Z,0
2016-05-21T01:18:39.814Z,0
2016-05-21T01:19:37.114Z,0
2016-05-21T01:20:37.070Z,0
2016-05-21T01:21:46.057Z,0
2016-05-21T01:22:39.310Z,0
2016-05-21T01:23:57.313Z,0
2016-05-21T01:24:39.627Z,0
2016-05-21T01:25:48.458Z,0
2016-05-21T01:26:36.914Z,0
2016-05-21T01:27:39.198Z,0
2016-05-21T01:28:39.170Z,0
2016-05-21T01:29:42.469Z,0
2016-05-21T01:30:39.441Z,0
2016-05-21T01:31:39.084Z,0
2016-05-21T01:32:42.634Z,0
2016-05-21T01:33:41.980Z,0
2016-05-21T01:34:42.029Z,0
2016-05-21T01:35:41.689Z,0
2016-05-21T01:36:38.770Z,0
2016-05-21T01:37:38.865Z,0
2016-05-21T01:38:35.978Z,0
2016-05-21T01:39:38.778Z,0
2016-05-21T01:40:41.733Z,0
2016-05-21T01:41:35.283Z,0
2016-05-21T01:42:41.614Z,0
2016-05-21T01:43:35.601Z,0
2016-05-21T01:44:38.729Z,0
2016-05-21T01:45:35.544Z,0
2016-05-21T01:46:38.437Z,0
2016-05-21T01:47:38.689Z,0
2016-05-21T01:48:35.333Z,0
2016-05-21T01:49:35.727Z,0
2016-05-21T01:50:35.291Z,0
2016-05-21T01:51:35.044Z,0
2016-05-21T01:52:34.999Z,0
2016-05-21T01:53:38.612Z,0
2016-05-21T01:54:35.036Z,0
2016-05-21T01:55:34.977Z,0
2016-05-21T01:56:38.246Z,0
2016-05-21T01:57:34.904Z,0
2016-05-21T01:58:34.860Z,0
2016-05-21T01:59:34.816Z,0
2016-05-21T02:00:35.349Z,0
2016-05-21T02:01:37.962Z,0
2016-05-21T02:02:43.651Z,0
2016-05-21T02:03:34.810Z,0
2016-05-21T02:04:40.626Z,0
2016-05-21T02:05:37.503Z,0
2016-05-21T02:06:37.459Z,0
2016-05-21T02:07:34.400Z,0
2016-05-21T02:08:35.105Z,0
2016-05-21T02:09:37.342Z,0
2016-05-21T02:10:37.267Z,0
2016-05-21T02:11:34.754Z,0
2016-05-21T02:12:34.007Z,0
2016-05-21T02:13:37.228Z,0
2016-05-21T02:14:34.309Z,0
2016-05-21T02:15:37.031Z,0
2016-05-21T02:16:40.049Z,0
2016-05-21T02:17:43.364Z,0
2016-05-21T02:18:33.725Z,0
2016-05-21T02:19:37.135Z,0
2016-05-21T02:20:36.794Z,0
2016-05-21T02:21:33.938Z,0
2016-05-21T02:22:36.705Z,0
2016-05-21T02:23:33.849Z,0
2016-05-21T02:24:33.414Z,0
2016-05-21T02:25:33.386Z,0
2016-05-21T02:26:33.232Z,0
2016-05-21T02:27:36.671Z,0
2016-05-21T02:28:33.269Z,0
2016-05-21T02:29:36.193Z,0
2016-05-21T02:30:36.305Z,0
2016-05-21T02:31:33.277Z,0
2016-05-21T02:32:33.201Z,0
2016-05-21T02:33:36.204Z,0
2016-05-21T02:34:33.190Z,0
2016-05-21T02:35:33.007Z,0
2016-05-21T02:36:33.148Z,0
2016-05-21T02:37:33.356Z,0
2016-05-21T02:38:32.921Z,0
2016-05-21T02:39:32.704Z,0
2016-05-21T02:40:32.660Z,0
2016-05-21T02:41:32.741Z,0
2016-05-21T02:42:32.728Z,0
2016-05-21T02:43:32.543Z,0
2016-05-21T02:44:32.483Z,0
2016-05-21T02:45:32.673Z,0
2016-05-21T02:46:32.379Z,0
2016-05-21T02:47:32.303Z,0
2016-05-21T02:48:32.963Z,0
2016-05-21T02:49:41.434Z,0
2016-05-21T02:50:38.344Z,0
2016-05-21T02:51:36.033Z,0
2016-05-21T02:52:32.333Z,0
2016-05-21T02:53:32.039Z,0
2016-05-21T02:54:35.182Z,0
2016-05-21T02:55:38.263Z,0
2016-05-21T02:56:31.750Z,0
2016-05-21T02:57:35.409Z,0
2016-05-21T02:58:34.833Z,0
2016-05-21T02:59:35.383Z,0
2016-05-21T03:00:31.683Z,0
2016-05-21T03:01:31.795Z,0
2016-05-21T03:02:31.468Z,0
2016-05-21T03:03:31.535Z,0
2016-05-21T03:04:31.662Z,0
2016-05-21T03:05:32.306Z,0
2016-05-21T03:06:34.417Z,0
2016-05-21T03:07:31.342Z,0
2016-05-21T03:08:31.470Z,0
2016-05-21T03:09:34.598Z,0
2016-05-21T03:10:31.256Z,0
2016-05-21T03:11:32.478Z,0
2016-05-21T03:12:31.231Z,0
2016-05-21T03:13:34.327Z,0
2016-05-21T03:14:31.845Z,0
2016-05-21T03:15:31.129Z,0
2016-05-21T03:16:36.960Z,0
2016-05-21T03:17:31.197Z,0
2016-05-21T03:18:30.841Z,0
2016-05-21T03:19:30.843Z,0
2016-05-21T03:20:33.878Z,0
2016-05-21T03:21:30.817Z,0
2016-05-21T03:22:30.773Z,0
2016-05-21T03:23:30.558Z,0
2016-05-21T03:24:33.669Z,0
2016-05-21T03:25:33.938Z,0
2016-05-21T03:26:30.799Z,0
2016-05-21T03:27:30.787Z,0
2016-05-21T03:28:30.461Z,0
2016-05-21T03:29:30.448Z,0
2016-05-21T03:30:30.419Z,0
2016-05-21T03:31:33.329Z,0
2016-05-21T03:32:30.284Z,0
2016-05-21T03:33:30.224Z,0
2016-05-21T03:34:30.274Z,0
2016-05-21T03:35:29.980Z,0
2016-05-21T03:36:30.107Z,0
2016-05-21T03:37:29.876Z,0
2016-05-21T03:38:32.988Z,0
2016-05-21T03:39:30.334Z,0
2016-05-21T03:40:33.009Z,0
2016-05-21T03:41:30.684Z,0
2016-05-21T03:42:30.014Z,0
2016-05-21T03:43:35.751Z,0
2016-05-21T03:44:33.598Z,0
2016-05-21T03:45:32.381Z,0
2016-05-21T03:46:36.009Z,0
2016-05-21T03:47:29.934Z,0
2016-05-21T03:48:29.343Z,0
2016-05-21T03:49:35.439Z,0
2016-05-21T03:50:29.395Z,0
2016-05-21T03:51:29.367Z,0
2016-05-21T03:52:32.150Z,0
2016-05-21T03:53:32.169Z,0
2016-05-21T03:54:35.219Z,0
2016-05-21T03:55:32.190Z,5
2016-05-21T03:56:29.130Z,5
2016-05-21T03:57:32.492Z,5
2016-05-21T03:58:29.011Z,5
2016-05-21T03:59:32.201Z,5
2016-05-21T04:00:35.516Z,5
2016-05-21T04:01:28.862Z,5
2016-05-21T04:02:28.818Z,5
2016-05-21T04:03:31.618Z,5
2016-05-21T04:04:35.324Z,5
2016-05-21T04:05:28.670Z,5
2016-05-21T04:06:31.595Z,5
2016-05-21T04:07:31.582Z,5
2016-05-21T04:08:31.631Z,5
2016-05-21T04:09:31.712Z,5
2016-05-21T04:10:28.840Z,5
2016-05-21T04:11:32.420Z,10
2016-05-21T04:12:31.189Z,10
2016-05-21T04:13:31.317Z,10
2016-05-21T04:14:28.413Z,10
2016-05-21T04:15:28.166Z,10
2016-05-21T04:16:31.387Z,10
2016-05-21T04:17:28.015Z,10
2016-05-21T04:18:28.095Z,15
2016-05-21T04:19:28.036Z,15
2016-05-21T04:20:31.148Z,15
2016-05-21T04:21:31.089Z,15
2016-05-21T04:22:27.841Z,15
2016-05-21T04:23:30.797Z,15
2016-05-21T04:24:27.939Z,15
2016-05-21T04:25:27.740Z,15
2016-05-21T04:26:37.476Z,15
2016-05-21T04:27:33.838Z,15
2016-05-21T04:28:31.107Z,15
2016-05-21T04:29:27.797Z,15
2016-05-21T04:30:30.847Z,20
2016-05-21T04:31:33.458Z,20
2016-05-21T04:32:27.352Z,20
2016-05-21T04:33:30.042Z,20
2016-05-21T04:34:30.263Z,20
2016-05-21T04:35:30.219Z,20
2016-05-21T04:36:27.003Z,20
2016-05-21T04:37:39.397Z,20
2016-05-21T04:38:27.056Z,20
2016-05-21T04:39:27.309Z,20
2016-05-21T04:40:27.233Z,20
2016-05-21T04:41:27.579Z,20
2016-05-21T04:42:27.067Z,20
2016-05-21T04:43:32.834Z,20
2016-05-21T04:44:29.978Z,20
2016-05-21T04:45:38.934Z,20
2016-05-21T04:46:26.812Z,20
2016-05-21T04:47:33.033Z,20
2016-05-21T04:48:26.770Z,20
2016-05-21T04:49:29.367Z,20
2016-05-21T04:50:26.589Z,20
2016-05-21T04:51:29.309Z,25
2016-05-21T04:52:29.422Z,25
2016-05-21T04:53:29.580Z,25
2016-05-21T04:54:32.505Z,25
2016-05-21T04:55:29.258Z,25
2016-05-21T04:56:26.620Z,25
2016-05-21T04:57:29.169Z,25
2016-05-21T04:58:29.484Z,30
2016-05-21T04:59:25.909Z,30
2016-05-21T05:00:28.849Z,30
2016-05-21T05:01:25.789Z,30
2016-05-21T05:02:26.151Z,30
2016-05-21T05:03:34.560Z,30
2016-05-21T05:04:25.813Z,30
2016-05-21T05:05:25.597Z,30
2016-05-21T05:06:25.881Z,35
2016-05-21T05:07:25.649Z,35
2016-05-21T05:08:28.823Z,35
2016-05-21T05:09:25.811Z,35
2016-05-21T05:10:28.704Z,35
2016-05-21T05:11:28.973Z,35
2016-05-21T05:12:25.444Z,35
2016-05-21T05:13:25.571Z,35
2016-05-21T05:14:25.481Z,40
2016-05-21T05:15:25.265Z,40
2016-05-21T05:16:28.440Z,40
2016-05-21T05:17:40.317Z,40
2016-05-21T05:18:30.976Z,45
2016-05-21T05:19:25.087Z,45
2016-05-21T05:20:28.137Z,45
2016-05-21T05:21:27.828Z,45
2016-05-21T05:22:25.080Z,50
2016-05-21T05:23:27.880Z,50
2016-05-21T05:24:28.101Z,50
2016-05-21T05:25:27.650Z,50
2016-05-21T05:26:31.419Z,55
2016-05-21T05:27:24.516Z,55
2016-05-21T05:28:27.674Z,60
2016-05-21T05:29:27.584Z,60
2016-05-21T05:30:36.664Z,60
2016-05-21T05:31:27.619Z,60
2016-05-21T05:32:24.826Z,60
2016-05-21T05:33:24.469Z,55
2016-05-21T05:34:27.332Z,60
2016-05-21T05:35:24.505Z,55
2016-05-21T05:36:33.463Z,60
2016-05-21T05:37:27.214Z,60
2016-05-21T05:38:33.670Z,60
2016-05-21T05:39:24.095Z,60
2016-05-21T05:40:24.801Z,65
2016-05-21T05:41:27.365Z,65
2016-05-21T05:42:33.024Z,65
2016-05-21T05:43:26.871Z,65
2016-05-21T05:44:30.265Z,70
2016-05-21T05:45:23.689Z,70
2016-05-21T05:46:26.832Z,70
2016-05-21T05:47:23.787Z,70
2016-05-21T05:48:29.759Z,70
2016-05-21T05:49:24.043Z,75
2016-05-21T05:50:26.859Z,70
2016-05-21T05:51:26.533Z,70
2016-05-21T05:52:26.708Z,75
2016-05-21T05:53:23.445Z,80
2016-05-21T05:54:23.635Z,85
2016-05-21T05:55:26.575Z,85
2016-05-21T05:56:24.109Z,85
2016-05-21T05:57:23.237Z,85
2016-05-21T05:58:23.021Z,85
2016-05-21T05:59:23.149Z,80
2016-05-21T06:00:29.182Z,80
2016-05-21T06:01:32.263Z,85
2016-05-21T06:02:29.032Z,90
2016-05-21T06:03:23.535Z,85
2016-05-21T06:04:26.178Z,80
2016-05-21T06:05:36.321Z,75
2016-05-21T06:06:29.214Z,70
2016-05-21T06:07:34.701Z,65
2016-05-21T06:08:31.751Z,60
2016-05-21T06:09:29.207Z,60
2016-05-21T06:10:25.694Z,55
2016-05-21T06:11:22.899Z,50
2016-05-21T06:12:22.887Z,45
2016-05-21T06:13:22.827Z,45
2016-05-21T06:14:25.298Z,45
2016-05-21T06:15:26.801Z,45
2016-05-21T06:16:31.366Z,45
2016-05-21T06:17:22.150Z,50
2016-05-21T06:18:25.153Z,55
2016-05-21T06:19:28.453Z,60
2016-05-21T06:20:22.158Z,65
2016-05-21T06:21:28.348Z,65
2016-05-21T06:22:27.961Z,70
2016-05-21T06:23:28.042Z,70
2016-05-21T06:24:28.044Z,75
2016-05-21T06:25:22.656Z,75
2016-05-21T06:26:28.003Z,75
2016-05-21T06:27:25.099Z,75
2016-05-21T06:28:21.930Z,80
2016-05-21T06:29:27.964Z,80
2016-05-21T06:30:24.903Z,75
2016-05-21T06:31:24.656Z,75
2016-05-21T06:32:30.815Z,75
2016-05-21T06:33:24.771Z,75
2016-05-21T06:34:31.243Z,75
2016-05-21T06:35:24.511Z,75
2016-05-21T06:36:22.030Z,80
2016-05-21T06:37:21.766Z,75
2016-05-21T06:38:21.691Z,70
2016-05-21T06:39:21.678Z,70
2016-05-21T06:40:21.100Z,65
2016-05-21T06:41:21.431Z,65
2016-05-21T06:42:24.155Z,65
2016-05-21T06:43:21.155Z,65
2016-05-21T06:44:20.860Z,65
2016-05-21T06:45:21.348Z,65
2016-05-21T06:46:21.131Z,65
2016-05-21T06:47:23.981Z,65
2016-05-21T06:48:23.718Z,70
2016-05-21T06:49:24.159Z,75
2016-05-21T06:50:23.973Z,75
2016-05-21T06:51:32.804Z,75
2016-05-21T06:52:23.572Z,80
2016-05-21T06:53:23.934Z,80
2016-05-21T06:54:27.390Z,80
2016-05-21T06:55:38.565Z,80
2016-05-21T06:56:23.942Z,80
2016-05-21T06:57:23.430Z,80
2016-05-21T06:58:26.308Z,80
2016-05-21T06:59:23.341Z,85
2016-05-21T07:00:26.578Z,90
2016-05-21T07:01:44.300Z,90
2016-05-21T07:02:23.222Z,90
2016-05-21T07:03:29.414Z,95
2016-05-21T07:04:26.136Z,100
2016-05-21T07:05:20.261Z,90
2016-05-21T07:06:23.202Z,90
2016-05-21T07:07:23.407Z,90
2016-05-21T07:08:23.175Z,95
2016-05-21T07:09:20.241Z,95
2016-05-21T07:10:26.042Z,95
2016-05-21T07:11:23.042Z,100
2016-05-21T07:12:23.030Z,105
2016-05-21T07:13:32.098Z,105
2016-05-21T07:14:22.879Z,105
2016-05-21T07:15:20.288Z,110
2016-05-21T07:16:25.793Z,110
2016-05-21T07:17:22.340Z,110
2016-05-21T07:18:28.487Z,110
2016-05-21T07:19:19.815Z,110
2016-05-21T07:20:25.460Z,105
2016-05-21T07:21:25.182Z,105
2016-05-21T07:22:25.825Z,105
2016-05-21T07:23:22.481Z,105
2016-05-21T07:24:19.203Z,105
2016-05-21T07:25:25.256Z,105
2016-05-21T07:26:19.927Z,105
2016-05-21T07:27:19.101Z,105
2016-05-21T07:28:19.213Z,105
2016-05-21T07:29:21.982Z,105
2016-05-21T07:30:25.237Z,105
2016-05-21T07:31:31.068Z,105
2016-05-21T07:32:24.899Z,105
2016-05-21T07:33:18.586Z,105
2016-05-21T07:34:21.714Z,105
2016-05-21T07:35:19.075Z,110
2016-05-21T07:36:18.657Z,110
2016-05-21T07:37:18.581Z,110
2016-05-21T07:38:22.037Z,115
2016-05-21T07:39:21.305Z,115
2016-05-21T07:40:25.249Z,115
2016-05-21T07:41:24.639Z,115
2016-05-21T07:42:18.360Z,115
2016-05-21T07:43:30.335Z,110
2016-05-21T07:44:25.649Z,110
2016-05-21T07:45:21.040Z,110
2016-05-21T07:46:24.793Z,105
2016-05-21T07:47:21.108Z,105
2016-05-21T07:48:24.111Z,105
2016-05-21T07:49:18.223Z,100
2016-05-21T07:50:23.976Z,95
2016-05-21T07:51:30.028Z,95
2016-05-21T07:52:21.293Z,95
2016-05-21T07:53:29.940Z,95
2016-05-21T07:54:23.815Z,95
2016-05-21T07:55:21.129Z,95
2016-05-21T07:56:26.729Z,95
2016-05-21T07:57:20.557Z,95
2016-05-21T07:58:26.828Z,95
2016-05-21T07:59:29.597Z,95
2016-05-21T08:00:20.956Z,95
2016-05-21T08:01:17.881Z,95
2016-05-21T08:02:23.633Z,90
2016-05-21T08:03:17.261Z,90
2016-05-21T08:04:23.575Z,90
2016-05-21T08:05:26.503Z,90
2016-05-21T08:06:20.300Z,90
2016-05-21T08:07:20.241Z,90
2016-05-21T08:08:25.993Z,90
2016-05-21T08:09:16.792Z,95
2016-05-21T08:10:19.936Z,100
2016-05-21T08:11:20.672Z,100
2016-05-21T08:12:19.832Z,100
2016-05-21T08:13:19.913Z,100
2016-05-21T08:14:16.977Z,105
2016-05-21T08:15:19.809Z,110
2016-05-21T08:16:16.717Z,115
2016-05-21T08:17:16.799Z,115
2016-05-21T08:18:16.770Z,120
2016-05-21T08:19:19.507Z,120
2016-05-21T08:20:16.854Z,120
2016-05-21T08:21:19.559Z,120
2016-05-21T08:22:16.781Z,120
2016-05-21T08:23:16.299Z,120
2016-05-21T08:24:16.254Z,120
2016-05-21T08:25:16.585Z,120
2016-05-21T08:26:16.948Z,120
2016-05-21T08:27:16.356Z,120
2016-05-21T08:28:19.984Z,120
2016-05-21T08:29:19.440Z,120
2016-05-21T08:30:19.349Z,120
2016-05-21T08:31:18.961Z,125
2016-05-21T08:32:15.886Z,135
2016-05-21T08:33:22.075Z,135
2016-05-21T08:34:16.375Z,135
2016-05-21T08:35:19.331Z,140
2016-05-21T08:36:18.850Z,140
2016-05-21T08:37:21.900Z,140
2016-05-21T08:38:15.964Z,145
2016-05-21T08:39:18.764Z,140
2016-05-21T08:40:15.891Z,140
2016-05-21T08:41:15.769Z,140
2016-05-21T08:42:18.710Z,130
2016-05-21T08:43:18.587Z,120
2016-05-21T08:44:21.340Z,110
2016-05-21T08:45:21.468Z,105
2016-05-21T08:46:15.423Z,105
2016-05-21T08:47:15.379Z,105
2016-05-21T08:48:18.163Z,110
2016-05-21T08:49:21.338Z,105
2016-05-21T08:50:24.340Z,100
2016-05-21T08:51:21.421Z,105
2016-05-21T08:52:15.189Z,105
2016-05-21T08:53:15.114Z,95
2016-05-21T08:54:14.913Z,95
2016-05-21T08:55:18.041Z,95
2016-05-21T08:56:15.200Z,95
2016-05-21T08:57:15.140Z,95
2016-05-21T08:58:14.581Z,90
2016-05-21T08:59:15.271Z,90
2016-05-21T09:00:14.804Z,90
2016-05-21T09:01:17.745Z,90
2016-05-21T09:02:14.544Z,90
2016-05-21T09:03:14.704Z,90
2016-05-21T09:04:14.612Z,90
2016-05-21T09:05:27.005Z,90
2016-05-21T09:06:14.540Z,95
2016-05-21T09:07:17.605Z,95
2016-05-21T09:08:17.655Z,100
2016-05-21T09:09:14.439Z,105
2016-05-21T09:10:23.567Z,125
2016-05-21T09:11:22.006Z,125
2016-05-21T09:12:18.119Z,115
2016-05-21T09:13:20.230Z,115
2016-05-21T09:14:20.374Z,105
2016-05-21T09:15:14.470Z,105
2016-05-21T09:16:14.066Z,105
2016-05-21T09:17:20.085Z,135
2016-05-21T09:18:17.063Z,145
2016-05-21T09:19:17.024Z,125
2016-05-21T09:20:16.719Z,110
2016-05-21T09:21:20.665Z,120
2016-05-21T09:22:13.986Z,110
2016-05-21T09:23:24.167Z,135
2016-05-21T09:24:20.053Z,145
2016-05-21T09:25:23.283Z,155
2016-05-21T09:26:22.761Z,155
2016-05-21T09:27:14.225Z,130
2016-05-21T09:28:22.776Z,115
2016-05-21T09:29:16.719Z,130
2016-05-21T09:30:19.350Z,145
2016-05-21T09:31:13.574Z,140
2016-05-21T09:32:16.517Z,135
2016-05-21T09:33:16.490Z,120
2016-05-21T09:34:13.321Z,125
2016-05-21T09:35:16.498Z,145
2016-05-21T09:36:16.782Z,125
2016-05-21T09:37:13.755Z,125
2016-05-21T09:38:16.492Z,145
2016-05-21T09:39:13.418Z,135
2016-05-21T09:40:16.186Z,150
2016-05-21T09:41:12.892Z,165
2016-05-21T09:42:16.787Z,160
2016-05-21T09:43:13.477Z,145
2016-05-21T09:44:13.713Z,145
2016-05-21T09:45:15.965Z,115
2016-05-21T09:46:12.922Z,105
2016-05-21T09:47:15.862Z,125
2016-05-21T09:48:12.896Z,150
2016-05-21T09:49:12.696Z,155
2016-05-21T09:50:12.760Z,130
2016-05-21T09:51:15.842Z,150
2016-05-21T09:52:15.688Z,175
2016-05-21T09:53:15.909Z,185
2016-05-21T09:54:18.458Z,195
2016-05-21T09:55:12.727Z,155
2016-05-21T09:56:12.480Z,115
2016-05-21T09:57:18.966Z,95
2016-05-21T09:58:12.579Z,90
2016-05-21T09:59:18.457Z,100
2016-05-21T10:00:21.819Z,110
2016-05-21T10:01:12.571Z,105
2016-05-21T10:02:15.105Z,100
2016-05-21T10:03:18.624Z,100
2016-05-21T10:04:15.033Z,120
2016-05-21T10:05:11.926Z,115
2016-05-21T10:06:12.226Z,115
2016-05-21T10:07:11.994Z,125
2016-05-21T10:08:12.199Z,130
2016-05-21T10:09:14.999Z,130
2016-05-21T10:10:12.174Z,140
2016-05-21T10:11:12.364Z,145
2016-05-21T10:12:19.226Z,120
2016-05-21T10:13:11.479Z,125
2016-05-21T10:14:11.731Z,115
2016-05-21T10:15:11.859Z,105
2016-05-21T10:16:17.627Z,115
2016-05-21T10:17:11.318Z,130
2016-05-21T10:18:14.539Z,165
2016-05-21T10:19:11.510Z,175
2016-05-21T10:20:17.294Z,150
2016-05-21T10:21:14.407Z,125
2016-05-21T10:22:11.628Z,110
2016-05-21T10:23:11.381Z,100
2016-05-21T10:24:11.462Z,100
2016-05-21T10:25:11.198Z,115
2016-05-21T10:26:11.700Z,125
2016-05-21T10:27:11.391Z,145
2016-05-21T10:28:14.300Z,140
2016-05-21T10:29:11.256Z,155
2016-05-21T10:30:11.008Z,155
2016-05-21T10:31:14.199Z,150
2016-05-21T10:32:11.108Z,145
2016-05-21T10:33:13.674Z,150
2016-05-21T10:34:10.832Z,145
2016-05-21T10:35:10.788Z,135
2016-05-21T10:36:13.635Z,125
2016-05-21T10:37:13.935Z,135
2016-05-21T10:38:13.655Z,140
2016-05-21T10:39:10.471Z,155
2016-05-21T10:40:19.599Z,155
2016-05-21T10:41:10.382Z,145
2016-05-21T10:42:16.540Z,145
2016-05-21T10:43:16.434Z,140
2016-05-21T10:44:11.203Z,130
2016-05-21T10:45:10.190Z,125
2016-05-21T10:46:13.583Z,130
2016-05-21T10:47:13.679Z,150
2016-05-21T10:48:13.635Z,155
2016-05-21T10:49:13.029Z,150
2016-05-21T10:50:10.203Z,145
2016-05-21T10:51:19.534Z,130
2016-05-21T10:52:13.021Z,130
2016-05-21T10:53:12.915Z,135
2016-05-21T10:54:10.167Z,135
2016-05-21T10:55:09.967Z,135
2016-05-21T10:56:09.907Z,145
2016-05-21T10:57:10.176Z,150
2016-05-21T10:58:12.818Z,150
2016-05-21T10:59:12.603Z,140
2016-05-21T11:00:15.730Z,135
2016-05-21T11:01:09.889Z,140
2016-05-21T11:02:09.626Z,145
2016-05-21T11:03:15.583Z,160
2016-05-21T11:04:18.413Z,170
2016-05-21T11:05:09.587Z,175
2016-05-21T11:06:12.465Z,175
2016-05-21T11:07:09.249Z,170
2016-05-21T11:08:12.424Z,165
2016-05-21T11:09:12.301Z,180
2016-05-21T11:10:09.476Z,195
2016-05-21T11:11:12.463Z,200
2016-05-21T11:12:16.200Z,200
2016-05-21T11:13:09.031Z,200
2016-05-21T11:14:09.096Z,210
2016-05-21T11:15:09.458Z,205
2016-05-21T11:16:09.007Z,195
2016-05-21T11:17:09.026Z,200
2016-05-21T11:18:08.998Z,190
2016-05-21T11:19:09.093Z,180
2016-05-21T11:20:12.815Z,190
2016-05-21T11:21:09.006Z,195
2016-05-21T11:22:11.976Z,185
2016-05-21T11:23:08.417Z,195
2016-05-21T11:24:08.686Z,190
2016-05-21T11:25:08.500Z,190
2016-05-21T11:26:08.800Z,200
2016-05-21T11:27:12.255Z,190
2016-05-21T11:28:11.728Z,180
2016-05-21T11:29:08.870Z,185
2016-05-21T11:30:08.467Z,190
2016-05-21T11:31:08.969Z,185
2016-05-21T11:32:11.425Z,180
2016-05-21T11:33:14.303Z,180
2016-05-21T11:34:08.259Z,175
2016-05-21T11:35:08.027Z,175
2016-05-21T11:36:10.889Z,175
2016-05-21T11:37:08.580Z,175
2016-05-21T11:38:20.302Z,175
2016-05-21T11:39:14.241Z,175
2016-05-21T11:40:11.400Z,175
2016-05-21T11:41:07.934Z,175
2016-05-21T11:42:10.968Z,170
2016-05-21T11:43:13.907Z,165
2016-05-21T11:44:14.068Z,165
2016-05-21T11:45:08.007Z,160
2016-05-21T11:46:07.932Z,160
2016-05-21T11:47:07.638Z,155
2016-05-21T11:48:10.672Z,150
2016-05-21T11:49:11.128Z,145
2016-05-21T11:50:10.599Z,160
2016-05-21T11:51:10.586Z,180
2016-05-21T11:52:10.339Z,175
2016-05-21T11:53:07.482Z,170
2016-05-21T11:54:10.406Z,180
2016-05-21T11:55:13.440Z,180
2016-05-21T11:56:10.365Z,205
2016-05-21T11:57:08.056Z,210
2016-05-21T11:58:07.230Z,195
2016-05-21T11:59:07.030Z,205
2016-05-21T12:00:07.391Z,220
2016-05-21T12:01:06.941Z,210
2016-05-21T12:02:07.365Z,200
2016-05-21T12:03:07.212Z,220
2016-05-21T12:04:06.997Z,225
2016-05-21T12:05:09.936Z,220
2016-05-21T12:06:10.110Z,215
2016-05-21T12:07:06.926Z,200
2016-05-21T12:08:06.835Z,180
2016-05-21T12:09:06.760Z,175
2016-05-21T12:10:12.778Z,205
2016-05-21T12:11:12.890Z,220
2016-05-21T12:12:06.736Z,215
2016-05-21T12:13:07.113Z,220
2016-05-21T12:14:09.773Z,230
2016-05-21T12:15:09.526Z,220
2016-05-21T12:16:06.716Z,210
2016-05-21T12:17:09.671Z,220
2016-05-21T12:18:09.252Z,220
2016-05-21T12:19:10.005Z,205
2016-05-21T12:20:06.539Z,195
2016-05-21T12:21:09.120Z,195
2016-05-21T12:22:06.185Z,215
2016-05-21T12:23:15.203Z,235
2016-05-21T12:24:09.143Z,255
2016-05-21T12:25:12.146Z,240
2016-05-21T12:26:17.977Z,220
2016-05-21T12:27:05.948Z,200
2016-05-21T12:28:11.967Z,200
2016-05-21T12:29:08.906Z,205
2016-05-21T12:30:05.722Z,200
2016-05-21T12:31:06.053Z,195
2016-05-21T12:32:05.806Z,185
2016-05-21T12:33:08.997Z,180
2016-05-21T12:34:11.717Z,170
2016-05-21T12:35:11.955Z,185
2016-05-21T12:36:11.863Z,190
2016-05-21T12:37:11.616Z,195
2016-05-21T12:38:05.571Z,190
2016-05-21T12:39:08.919Z,175
2016-05-21T12:40:05.468Z,155
2016-05-21T12:41:08.454Z,180
2016-05-21T12:42:06.239Z,190
2016-05-21T12:43:05.210Z,180
2016-05-21T12:44:11.322Z,165
2016-05-21T12:45:14.560Z,155
2016-05-21T12:46:05.218Z,150
2016-05-21T12:47:05.487Z,155
2016-05-21T12:48:08.129Z,150
2016-05-21T12:49:05.085Z,140
2016-05-21T12:50:11.042Z,135
2016-05-21T12:51:08.076Z,140
2016-05-21T12:52:10.954Z,135
2016-05-21T12:53:16.987Z,135
2016-05-21T12:54:12.146Z,135
2016-05-21T12:55:10.930Z,135
2016-05-21T12:56:25.683Z,130
2016-05-21T12:57:07.607Z,135
2016-05-21T12:58:07.703Z,135
2016-05-21T12:59:10.675Z,140
2016-05-21T13:00:10.725Z,145
2016-05-21T13:01:07.587Z,145
2016-05-21T13:02:13.620Z,140
2016-05-21T13:03:10.373Z,140
2016-05-21T13:04:07.361Z,140
2016-05-21T13:05:04.441Z,140
2016-05-21T13:06:10.460Z,140
2016-05-21T13:07:04.540Z,140
2016-05-21T13:08:10.402Z,140
2016-05-21T13:09:10.483Z,140
2016-05-21T13:10:19.877Z,140
2016-05-21T13:11:13.239Z,145
2016-05-21T13:12:10.054Z,150
2016-05-21T13:13:16.119Z,135
2016-05-21T13:14:04.731Z,150
2016-05-21T13:15:09.953Z,180
2016-05-21T13:16:13.032Z,190
2016-05-21T13:17:07.098Z,185
2016-05-21T13:18:07.101Z,205
2016-05-21T13:19:03.963Z,195
2016-05-21T13:20:12.857Z,180
2016-05-21T13:21:06.796Z,190
2016-05-21T13:22:06.565Z,200
2016-05-21T13:23:04.131Z,205
2016-05-21T13:24:03.617Z,185
2016-05-21T13:25:03.464Z,165
2016-05-21T13:26:03.764Z,155
2016-05-21T13:27:07.469Z,155
2016-05-21T13:28:13.065Z,150
2016-05-21T13:29:03.412Z,150
2016-05-21T13:30:06.384Z,150
2016-05-21T13:31:03.028Z,130
2016-05-21T13:32:09.295Z,135
2016-05-21T13:33:03.094Z,170
2016-05-21T13:34:03.081Z,190
2016-05-21T13:35:03.163Z,210
2016-05-21T13:36:09.119Z,160
2016-05-21T13:37:03.340Z,155
2016-05-21T13:38:06.092Z,165
2016-05-21T13:39:09.002Z,175
2016-05-21T13:40:05.676Z,185
2016-05-21T13:41:05.633Z,180
2016-05-21T13:42:05.838Z,160
2016-05-21T13:43:02.824Z,160
2016-05-21T13:44:02.687Z,160
2016-05-21T13:45:05.940Z,155
2016-05-21T13:46:05.771Z,160
2016-05-21T13:47:02.663Z,175
2016-05-21T13:48:05.916Z,180
2016-05-21T13:49:02.576Z,180
2016-05-21T13:50:05.546Z,170
2016-05-21T13:51:05.362Z,170
2016-05-21T13:52:05.302Z,180
2016-05-21T13:53:02.414Z,175
2016-05-21T13:54:05.215Z,170
2016-05-21T13:55:05.420Z,165
2016-05-21T13:56:08.281Z,160
2016-05-21T13:57:08.268Z,165
2016-05-21T13:58:05.209Z,165
2016-05-21T13:59:05.228Z,170
2016-05-21T14:00:05.370Z,170
2016-05-21T14:01:17.561Z,170
2016-05-21T14:02:01.892Z,165
2016-05-21T14:03:05.082Z,175
2016-05-21T14:04:02.162Z,175
2016-05-21T14:05:04.805Z,175
2016-05-21T14:06:01.871Z,175
2016-05-21T14:07:02.264Z,175
2016-05-21T14:08:01.797Z,170
2016-05-21T14:09:01.660Z,170
2016-05-21T14:10:01.991Z,150